sensor_id;sensor_type;location;lat;lon;timestamp;temperature;humidity
484;DHT22;228;48.922;12.198;2023-08-30T04:03:22;16.90;94.90
484;DHT22;228;48.922;12.198;2023-08-30T04:05:53;16.80;95.30
484;DHT22;228;48.922;12.198;2023-08-30T04:08:20;16.90;95.30
484;DHT22;228;48.922;12.198;2023-08-30T04:10:47;17.10;95.40
484;DHT22;228;48.922;12.198;2023-08-30T04:13:14;17.10;94.70
484;DHT22;228;48.922;12.198;2023-08-30T04:15:40;17.20;94.50
484;DHT22;228;48.922;12.198;2023-08-30T04:18:08;17.20;94.50
484;DHT22;228;48.922;12.198;2023-08-30T04:20:34;17.20;94.30
484;DHT22;228;48.922;12.198;2023-08-30T04:23:01;17.20;94.40
484;DHT22;228;48.922;12.198;2023-08-30T04:25:30;17.00;94.50
484;DHT22;228;48.922;12.198;2023-08-30T04:27:57;16.90;94.70
484;DHT22;228;48.922;12.198;2023-08-30T04:30:24;16.90;94.80
484;DHT22;228;48.922;12.198;2023-08-30T04:32:51;16.90;94.90
484;DHT22;228;48.922;12.198;2023-08-30T04:35:18;16.90;94.90
484;DHT22;228;48.922;12.198;2023-08-30T04:37:44;17.00;94.60
484;DHT22;228;48.922;12.198;2023-08-30T04:40:10;16.90;95.10
484;DHT22;228;48.922;12.198;2023-08-30T04:42:37;16.80;95.20
484;DHT22;228;48.922;12.198;2023-08-30T04:45:06;16.90;95.00
484;DHT22;228;48.922;12.198;2023-08-30T04:47:33;17.00;94.90
484;DHT22;228;48.922;12.198;2023-08-30T04:50:01;17.00;94.70
484;DHT22;228;48.922;12.198;2023-08-30T04:52:28;16.90;95.10
484;DHT22;228;48.922;12.198;2023-08-30T04:54:56;17.20;94.90
484;DHT22;228;48.922;12.198;2023-08-30T04:57:24;17.50;94.20
484;DHT22;228;48.922;12.198;2023-08-30T04:59:51;17.80;93.70
484;DHT22;228;48.922;12.198;2023-08-30T05:02:17;17.90;93.30
484;DHT22;228;48.922;12.198;2023-08-30T05:04:51;18.20;92.80
484;DHT22;228;48.922;12.198;2023-08-30T05:07:17;18.30;92.50
484;DHT22;228;48.922;12.198;2023-08-30T05:09:45;18.40;92.30
484;DHT22;228;48.922;12.198;2023-08-30T05:12:11;18.40;92.00
484;DHT22;228;48.922;12.198;2023-08-30T05:14:37;18.40;92.40
484;DHT22;228;48.922;12.198;2023-08-30T05:17:03;18.40;91.90
484;DHT22;228;48.922;12.198;2023-08-30T05:19:29;18.30;92.00
484;DHT22;228;48.922;12.198;2023-08-30T05:21:56;18.20;92.00
484;DHT22;228;48.922;12.198;2023-08-30T05:24:22;18.10;92.30
484;DHT22;228;48.922;12.198;2023-08-30T05:26:48;18.10;92.40
484;DHT22;228;48.922;12.198;2023-08-30T05:29:16;18.10;92.30
484;DHT22;228;48.922;12.198;2023-08-30T05:31:51;18.20;92.20
484;DHT22;228;48.922;12.198;2023-08-30T05:34:24;18.20;92.00
484;DHT22;228;48.922;12.198;2023-08-30T05:36:55;18.40;91.80
484;DHT22;228;48.922;12.198;2023-08-30T05:39:32;18.50;91.50
484;DHT22;228;48.922;12.198;2023-08-30T05:41:58;18.70;91.20
484;DHT22;228;48.922;12.198;2023-08-30T05:44:24;18.80;91.00
484;DHT22;228;48.922;12.198;2023-08-30T05:46:50;18.50;91.30
484;DHT22;228;48.922;12.198;2023-08-30T05:49:16;18.50;91.50
484;DHT22;228;48.922;12.198;2023-08-30T05:51:44;18.30;91.70
484;DHT22;228;48.922;12.198;2023-08-30T05:54:11;18.40;91.90
484;DHT22;228;48.922;12.198;2023-08-30T05:56:37;18.40;91.90
484;DHT22;228;48.922;12.198;2023-08-30T05:59:03;18.40;91.50
484;DHT22;228;48.922;12.198;2023-08-30T06:01:29;18.60;91.70
484;DHT22;228;48.922;12.198;2023-08-30T06:03:55;18.40;91.40
484;DHT22;228;48.922;12.198;2023-08-30T06:06:21;17.90;92.60
484;DHT22;228;48.922;12.198;2023-08-30T06:08:47;17.90;92.70
484;DHT22;228;48.922;12.198;2023-08-30T06:11:13;17.60;93.30
484;DHT22;228;48.922;12.198;2023-08-30T06:13:40;17.60;93.50
484;DHT22;228;48.922;12.198;2023-08-30T06:16:06;17.70;93.50
484;DHT22;228;48.922;12.198;2023-08-30T06:18:33;17.90;93.10
484;DHT22;228;48.922;12.198;2023-08-30T06:20:59;17.60;93.30
484;DHT22;228;48.922;12.198;2023-08-30T06:23:26;17.40;93.60
484;DHT22;228;48.922;12.198;2023-08-30T06:25:56;17.40;93.90
484;DHT22;228;48.922;12.198;2023-08-30T06:28:23;17.50;94.40
484;DHT22;228;48.922;12.198;2023-08-30T06:30:50;18.00;93.20
484;DHT22;228;48.922;12.198;2023-08-30T06:33:16;18.30;92.40
484;DHT22;228;48.922;12.198;2023-08-30T06:35:42;18.30;92.30
484;DHT22;228;48.922;12.198;2023-08-30T06:38:08;18.60;92.10
484;DHT22;228;48.922;12.198;2023-08-30T06:40:36;18.60;91.50
484;DHT22;228;48.922;12.198;2023-08-30T06:43:02;19.10;91.00
484;DHT22;228;48.922;12.198;2023-08-30T06:45:29;18.70;91.10
484;DHT22;228;48.922;12.198;2023-08-30T06:47:55;18.50;91.60
484;DHT22;228;48.922;12.198;2023-08-30T06:50:21;18.90;90.40
484;DHT22;228;48.922;12.198;2023-08-30T06:52:47;19.20;90.80
484;DHT22;228;48.922;12.198;2023-08-30T06:55:13;19.30;89.90
484;DHT22;228;48.922;12.198;2023-08-30T06:57:39;19.60;88.90
484;DHT22;228;48.922;12.198;2023-08-30T07:00:06;19.90;87.10
484;DHT22;228;48.922;12.198;2023-08-30T07:02:37;20.10;86.50
484;DHT22;228;48.922;12.198;2023-08-30T07:05:04;20.10;84.70
484;DHT22;228;48.922;12.198;2023-08-30T07:07:31;20.30;84.30
484;DHT22;228;48.922;12.198;2023-08-30T07:09:57;20.10;85.30
484;DHT22;228;48.922;12.198;2023-08-30T07:12:23;19.70;85.60
484;DHT22;228;48.922;12.198;2023-08-30T07:14:49;19.30;88.10
484;DHT22;228;48.922;12.198;2023-08-30T07:17:15;19.40;88.40
484;DHT22;228;48.922;12.198;2023-08-30T07:19:41;19.30;89.00
484;DHT22;228;48.922;12.198;2023-08-30T07:22:07;19.60;88.60
484;DHT22;228;48.922;12.198;2023-08-30T07:24:33;19.30;87.80
484;DHT22;228;48.922;12.198;2023-08-30T07:26:59;18.90;90.00
484;DHT22;228;48.922;12.198;2023-08-30T07:29:25;19.00;90.10
484;DHT22;228;48.922;12.198;2023-08-30T07:31:52;19.50;89.20
484;DHT22;228;48.922;12.198;2023-08-30T07:34:19;19.50;86.50
484;DHT22;228;48.922;12.198;2023-08-30T07:36:45;19.50;85.90
484;DHT22;228;48.922;12.198;2023-08-30T07:39:11;18.80;88.50
484;DHT22;228;48.922;12.198;2023-08-30T07:41:37;18.80;89.60
484;DHT22;228;48.922;12.198;2023-08-30T07:44:03;18.50;90.30
484;DHT22;228;48.922;12.198;2023-08-30T07:46:30;18.90;90.80
484;DHT22;228;48.922;12.198;2023-08-30T07:48:56;19.10;88.80
484;DHT22;228;48.922;12.198;2023-08-30T07:51:22;19.60;88.20
484;DHT22;228;48.922;12.198;2023-08-30T07:53:48;19.90;85.60
484;DHT22;228;48.922;12.198;2023-08-30T07:56:14;20.50;84.30
484;DHT22;228;48.922;12.198;2023-08-30T07:58:43;20.30;84.50
484;DHT22;228;48.922;12.198;2023-08-30T08:01:09;20.50;83.90
484;DHT22;228;48.922;12.198;2023-08-30T08:03:35;20.40;83.50
484;DHT22;228;48.922;12.198;2023-08-30T08:06:01;20.80;82.80
484;DHT22;228;48.922;12.198;2023-08-30T08:08:27;20.50;80.80
484;DHT22;228;48.922;12.198;2023-08-30T08:10:53;20.40;80.90
484;DHT22;228;48.922;12.198;2023-08-30T08:13:19;20.50;81.00
484;DHT22;228;48.922;12.198;2023-08-30T08:15:45;20.90;78.80
484;DHT22;228;48.922;12.198;2023-08-30T08:18:11;20.90;79.10
484;DHT22;228;48.922;12.198;2023-08-30T08:20:37;21.30;79.30
484;DHT22;228;48.922;12.198;2023-08-30T08:23:05;20.80;78.20
484;DHT22;228;48.922;12.198;2023-08-30T08:25:31;20.80;80.10
484;DHT22;228;48.922;12.198;2023-08-30T08:27:57;20.80;80.30
484;DHT22;228;48.922;12.198;2023-08-30T08:30:23;20.90;79.20
484;DHT22;228;48.922;12.198;2023-08-30T08:32:49;20.50;79.90
484;DHT22;228;48.922;12.198;2023-08-30T08:35:15;20.30;81.80
484;DHT22;228;48.922;12.198;2023-08-30T08:37:41;20.10;80.70
484;DHT22;228;48.922;12.198;2023-08-30T08:40:07;20.30;80.80
484;DHT22;228;48.922;12.198;2023-08-30T08:42:35;20.40;79.80
484;DHT22;228;48.922;12.198;2023-08-30T08:45:05;20.80;80.20
484;DHT22;228;48.922;12.198;2023-08-30T08:47:33;20.40;78.90
484;DHT22;228;48.922;12.198;2023-08-30T08:49:59;20.40;79.40
484;DHT22;228;48.922;12.198;2023-08-30T08:52:26;20.50;78.50
484;DHT22;228;48.922;12.198;2023-08-30T08:54:52;20.20;77.50
484;DHT22;228;48.922;12.198;2023-08-30T08:57:20;20.10;80.30
484;DHT22;228;48.922;12.198;2023-08-30T08:59:47;20.00;80.70
484;DHT22;228;48.922;12.198;2023-08-30T09:02:14;19.90;80.60
484;DHT22;228;48.922;12.198;2023-08-30T09:04:40;19.90;82.60
484;DHT22;228;48.922;12.198;2023-08-30T09:07:06;19.90;79.20
484;DHT22;228;48.922;12.198;2023-08-30T09:09:33;20.20;79.50
484;DHT22;228;48.922;12.198;2023-08-30T09:12:00;20.30;79.30
484;DHT22;228;48.922;12.198;2023-08-30T09:14:26;20.30;78.70
484;DHT22;228;48.922;12.198;2023-08-30T09:16:59;20.60;77.10
484;DHT22;228;48.922;12.198;2023-08-30T09:19:27;20.60;77.90
484;DHT22;228;48.922;12.198;2023-08-30T09:21:54;20.90;77.60
484;DHT22;228;48.922;12.198;2023-08-30T09:24:21;21.20;73.10
484;DHT22;228;48.922;12.198;2023-08-30T09:26:54;21.80;72.20
484;DHT22;228;48.922;12.198;2023-08-30T09:29:21;22.20;70.80
484;DHT22;228;48.922;12.198;2023-08-30T09:31:52;22.70;69.50
484;DHT22;228;48.922;12.198;2023-08-30T09:34:25;23.00;64.20
484;DHT22;228;48.922;12.198;2023-08-30T09:36:52;22.70;64.10
484;DHT22;228;48.922;12.198;2023-08-30T09:39:19;22.70;64.30
484;DHT22;228;48.922;12.198;2023-08-30T09:41:48;23.30;61.40
484;DHT22;228;48.922;12.198;2023-08-30T09:44:19;23.80;57.80
484;DHT22;228;48.922;12.198;2023-08-30T09:46:50;23.70;59.60
484;DHT22;228;48.922;12.198;2023-08-30T09:49:21;22.80;60.80
484;DHT22;228;48.922;12.198;2023-08-30T09:51:50;22.70;60.40
484;DHT22;228;48.922;12.198;2023-08-30T09:54:19;22.70;59.60
484;DHT22;228;48.922;12.198;2023-08-30T09:56:51;21.60;66.30
484;DHT22;228;48.922;12.198;2023-08-30T09:59:23;21.10;70.70
484;DHT22;228;48.922;12.198;2023-08-30T10:01:49;20.90;72.40
484;DHT22;228;48.922;12.198;2023-08-30T10:04:19;21.20;71.80
484;DHT22;228;48.922;12.198;2023-08-30T10:06:46;21.70;73.00
484;DHT22;228;48.922;12.198;2023-08-30T10:09:15;22.00;66.90
484;DHT22;228;48.922;12.198;2023-08-30T10:11:45;22.10;68.30
484;DHT22;228;48.922;12.198;2023-08-30T10:14:13;22.80;65.20
484;DHT22;228;48.922;12.198;2023-08-30T10:16:46;22.70;63.80
484;DHT22;228;48.922;12.198;2023-08-30T10:19:37;23.30;66.80
484;DHT22;228;48.922;12.198;2023-08-30T10:22:06;24.60;59.20
484;DHT22;228;48.922;12.198;2023-08-30T10:24:50;24.20;57.80
484;DHT22;228;48.922;12.198;2023-08-30T10:27:19;22.70;60.20
484;DHT22;228;48.922;12.198;2023-08-30T10:29:48;22.00;62.30
484;DHT22;228;48.922;12.198;2023-08-30T10:32:20;21.90;61.20
484;DHT22;228;48.922;12.198;2023-08-30T10:34:50;22.40;63.10
484;DHT22;228;48.922;12.198;2023-08-30T10:37:22;22.60;60.00
484;DHT22;228;48.922;12.198;2023-08-30T10:39:50;23.10;60.50
484;DHT22;228;48.922;12.198;2023-08-30T10:42:17;22.80;60.30
484;DHT22;228;48.922;12.198;2023-08-30T10:44:57;22.90;63.50
484;DHT22;228;48.922;12.198;2023-08-30T10:47:28;22.70;66.40
484;DHT22;228;48.922;12.198;2023-08-30T10:49:57;23.00;64.20
484;DHT22;228;48.922;12.198;2023-08-30T10:52:26;22.90;62.10
484;DHT22;228;48.922;12.198;2023-08-30T10:55:10;23.10;58.50
484;DHT22;228;48.922;12.198;2023-08-30T10:57:41;22.90;57.50
484;DHT22;228;48.922;12.198;2023-08-30T11:00:19;23.00;60.00
484;DHT22;228;48.922;12.198;2023-08-30T11:02:48;23.90;58.90
484;DHT22;228;48.922;12.198;2023-08-30T11:05:20;23.60;58.40
484;DHT22;228;48.922;12.198;2023-08-30T11:07:48;23.70;59.30
484;DHT22;228;48.922;12.198;2023-08-30T11:10:16;24.10;59.40
484;DHT22;228;48.922;12.198;2023-08-30T11:12:43;24.40;57.80
484;DHT22;228;48.922;12.198;2023-08-30T11:15:11;24.90;55.20
484;DHT22;228;48.922;12.198;2023-08-30T11:17:45;25.40;56.20
484;DHT22;228;48.922;12.198;2023-08-30T11:20:12;26.50;52.60
484;DHT22;228;48.922;12.198;2023-08-30T11:22:44;27.60;49.90
484;DHT22;228;48.922;12.198;2023-08-30T11:25:13;27.00;49.90
484;DHT22;228;48.922;12.198;2023-08-30T11:27:40;28.10;50.30
484;DHT22;228;48.922;12.198;2023-08-30T11:30:08;28.60;47.60
484;DHT22;228;48.922;12.198;2023-08-30T11:32:39;27.50;47.60
484;DHT22;228;48.922;12.198;2023-08-30T11:35:06;28.20;46.10
484;DHT22;228;48.922;12.198;2023-08-30T11:37:33;30.40;42.80
484;DHT22;228;48.922;12.198;2023-08-30T11:40:00;31.60;36.70
484;DHT22;228;48.922;12.198;2023-08-30T11:42:27;31.30;36.60
484;DHT22;228;48.922;12.198;2023-08-30T11:44:53;29.90;38.80
484;DHT22;228;48.922;12.198;2023-08-30T11:47:23;30.60;39.30
484;DHT22;228;48.922;12.198;2023-08-30T11:49:52;31.20;38.80
484;DHT22;228;48.922;12.198;2023-08-30T11:52:20;31.10;39.20
484;DHT22;228;48.922;12.198;2023-08-30T11:54:47;30.30;40.70
484;DHT22;228;48.922;12.198;2023-08-30T11:57:14;30.10;39.70
484;DHT22;228;48.922;12.198;2023-08-30T11:59:40;29.90;40.00
484;DHT22;228;48.922;12.198;2023-08-30T12:02:07;29.00;41.40
484;DHT22;228;48.922;12.198;2023-08-30T12:04:46;29.80;41.10
484;DHT22;228;48.922;12.198;2023-08-30T12:07:23;31.60;38.90
484;DHT22;228;48.922;12.198;2023-08-30T12:09:49;32.20;35.00
484;DHT22;228;48.922;12.198;2023-08-30T12:12:15;33.50;33.90
484;DHT22;228;48.922;12.198;2023-08-30T12:14:41;33.90;32.90
484;DHT22;228;48.922;12.198;2023-08-30T12:17:09;32.00;33.80
484;DHT22;228;48.922;12.198;2023-08-30T12:19:38;30.70;36.20
484;DHT22;228;48.922;12.198;2023-08-30T12:22:07;31.60;35.70
484;DHT22;228;48.922;12.198;2023-08-30T12:24:43;32.80;33.80
484;DHT22;228;48.922;12.198;2023-08-30T12:27:10;34.20;30.70
484;DHT22;228;48.922;12.198;2023-08-30T12:29:36;34.70;29.70
484;DHT22;228;48.922;12.198;2023-08-30T12:32:02;33.90;30.80
484;DHT22;228;48.922;12.198;2023-08-30T12:34:28;34.50;29.60
484;DHT22;228;48.922;12.198;2023-08-30T12:36:54;35.20;30.00
484;DHT22;228;48.922;12.198;2023-08-30T12:39:21;35.10;30.40
484;DHT22;228;48.922;12.198;2023-08-30T12:41:47;33.00;32.60
484;DHT22;228;48.922;12.198;2023-08-30T12:44:13;32.90;34.60
484;DHT22;228;48.922;12.198;2023-08-30T12:46:39;33.20;32.70
484;DHT22;228;48.922;12.198;2023-08-30T12:49:05;32.80;34.70
484;DHT22;228;48.922;12.198;2023-08-30T12:51:31;32.70;33.50
484;DHT22;228;48.922;12.198;2023-08-30T12:53:57;30.20;35.90
484;DHT22;228;48.922;12.198;2023-08-30T12:56:23;28.80;38.90
484;DHT22;228;48.922;12.198;2023-08-30T12:58:49;26.50;46.20
484;DHT22;228;48.922;12.198;2023-08-30T13:01:17;24.90;51.00
484;DHT22;228;48.922;12.198;2023-08-30T13:03:43;24.00;54.70
484;DHT22;228;48.922;12.198;2023-08-30T13:06:09;23.60;55.90
484;DHT22;228;48.922;12.198;2023-08-30T13:08:35;22.60;59.10
484;DHT22;228;48.922;12.198;2023-08-30T13:11:01;21.60;62.50
484;DHT22;228;48.922;12.198;2023-08-30T13:13:27;21.60;65.30
484;DHT22;228;48.922;12.198;2023-08-30T13:15:53;21.10;67.60
484;DHT22;228;48.922;12.198;2023-08-30T13:18:20;20.30;67.40
484;DHT22;228;48.922;12.198;2023-08-30T13:20:47;19.90;70.70
484;DHT22;228;48.922;12.198;2023-08-30T13:23:13;20.10;71.30
484;DHT22;228;48.922;12.198;2023-08-30T13:25:42;20.60;70.20
484;DHT22;228;48.922;12.198;2023-08-30T13:28:08;21.50;65.10
484;DHT22;228;48.922;12.198;2023-08-30T13:30:34;22.10;64.90
484;DHT22;228;48.922;12.198;2023-08-30T13:33:00;23.30;61.30
484;DHT22;228;48.922;12.198;2023-08-30T13:35:26;24.20;57.00
484;DHT22;228;48.922;12.198;2023-08-30T13:37:52;24.40;55.00
484;DHT22;228;48.922;12.198;2023-08-30T13:40:18;24.10;56.20
484;DHT22;228;48.922;12.198;2023-08-30T13:42:44;23.80;57.30
484;DHT22;228;48.922;12.198;2023-08-30T13:45:10;23.00;55.60
484;DHT22;228;48.922;12.198;2023-08-30T13:47:37;22.00;58.80
484;DHT22;228;48.922;12.198;2023-08-30T13:50:03;22.20;57.50
484;DHT22;228;48.922;12.198;2023-08-30T13:52:29;22.10;57.00
484;DHT22;228;48.922;12.198;2023-08-30T13:54:56;21.80;56.30
484;DHT22;228;48.922;12.198;2023-08-30T13:57:22;21.50;58.50
484;DHT22;228;48.922;12.198;2023-08-30T13:59:48;21.50;60.00
484;DHT22;228;48.922;12.198;2023-08-30T14:02:14;21.30;63.00
484;DHT22;228;48.922;12.198;2023-08-30T14:04:40;20.10;71.00
484;DHT22;228;48.922;12.198;2023-08-30T14:07:06;19.70;79.80
484;DHT22;228;48.922;12.198;2023-08-30T14:09:32;19.40;81.30
484;DHT22;228;48.922;12.198;2023-08-30T14:11:58;19.20;84.40
484;DHT22;228;48.922;12.198;2023-08-30T14:14:24;18.50;86.20
484;DHT22;228;48.922;12.198;2023-08-30T14:16:50;18.60;89.10
484;DHT22;228;48.922;12.198;2023-08-30T14:19:16;19.20;91.20
484;DHT22;228;48.922;12.198;2023-08-30T14:21:42;19.70;88.70
484;DHT22;228;48.922;12.198;2023-08-30T14:24:08;19.50;90.30
484;DHT22;228;48.922;12.198;2023-08-30T14:26:34;19.90;90.40
484;DHT22;228;48.922;12.198;2023-08-30T14:29:00;19.90;89.20
484;DHT22;228;48.922;12.198;2023-08-30T14:31:26;20.20;90.00
484;DHT22;228;48.922;12.198;2023-08-30T14:33:55;20.10;85.80
484;DHT22;228;48.922;12.198;2023-08-30T14:36:23;20.00;86.30
484;DHT22;228;48.922;12.198;2023-08-30T14:38:50;20.00;84.60
484;DHT22;228;48.922;12.198;2023-08-30T14:41:16;19.90;83.60
484;DHT22;228;48.922;12.198;2023-08-30T14:43:43;20.00;81.20
484;DHT22;228;48.922;12.198;2023-08-30T14:46:10;20.10;85.00
484;DHT22;228;48.922;12.198;2023-08-30T14:48:36;20.40;85.20
484;DHT22;228;48.922;12.198;2023-08-30T14:51:06;20.40;84.10
484;DHT22;228;48.922;12.198;2023-08-30T14:53:33;20.50;84.70
484;DHT22;228;48.922;12.198;2023-08-30T14:55:59;20.80;82.10
484;DHT22;228;48.922;12.198;2023-08-30T14:58:25;20.80;81.50
484;DHT22;228;48.922;12.198;2023-08-30T15:00:51;20.90;80.60
484;DHT22;228;48.922;12.198;2023-08-30T15:03:17;20.40;77.00
484;DHT22;228;48.922;12.198;2023-08-30T15:05:43;20.40;77.80
484;DHT22;228;48.922;12.198;2023-08-30T15:08:10;20.30;76.90
484;DHT22;228;48.922;12.198;2023-08-30T15:10:36;20.50;76.30
484;DHT22;228;48.922;12.198;2023-08-30T15:13:02;20.70;75.50
484;DHT22;228;48.922;12.198;2023-08-30T15:15:29;20.70;73.70
484;DHT22;228;48.922;12.198;2023-08-30T15:17:56;20.80;74.40
484;DHT22;228;48.922;12.198;2023-08-30T15:20:22;21.10;74.20
484;DHT22;228;48.922;12.198;2023-08-30T15:22:48;21.40;72.90
484;DHT22;228;48.922;12.198;2023-08-30T15:25:14;21.20;69.50
484;DHT22;228;48.922;12.198;2023-08-30T15:27:40;21.20;68.00
484;DHT22;228;48.922;12.198;2023-08-30T15:30:07;21.00;67.20
484;DHT22;228;48.922;12.198;2023-08-30T15:32:33;21.00;67.70
484;DHT22;228;48.922;12.198;2023-08-30T15:34:59;21.20;70.70
484;DHT22;228;48.922;12.198;2023-08-30T15:37:25;21.70;68.70
484;DHT22;228;48.922;12.198;2023-08-30T15:39:59;21.70;66.70
484;DHT22;228;48.922;12.198;2023-08-30T15:42:33;21.60;65.40
484;DHT22;228;48.922;12.198;2023-08-30T15:44:59;21.40;66.30
484;DHT22;228;48.922;12.198;2023-08-30T15:47:28;21.00;67.80
484;DHT22;228;48.922;12.198;2023-08-30T15:49:54;20.30;70.70
484;DHT22;228;48.922;12.198;2023-08-30T15:52:20;20.20;71.20
484;DHT22;228;48.922;12.198;2023-08-30T15:54:46;20.00;73.60
484;DHT22;228;48.922;12.198;2023-08-30T15:57:12;20.20;73.40
484;DHT22;228;48.922;12.198;2023-08-30T15:59:38;20.40;72.40
484;DHT22;228;48.922;12.198;2023-08-30T16:02:05;20.20;71.10
484;DHT22;228;48.922;12.198;2023-08-30T16:04:31;19.80;73.60
484;DHT22;228;48.922;12.198;2023-08-30T16:06:57;20.20;74.50
484;DHT22;228;48.922;12.198;2023-08-30T16:09:23;20.70;73.70
484;DHT22;228;48.922;12.198;2023-08-30T16:11:49;20.90;75.20
484;DHT22;228;48.922;12.198;2023-08-30T16:14:15;20.40;78.40
484;DHT22;228;48.922;12.198;2023-08-30T16:16:41;20.60;79.30
484;DHT22;228;48.922;12.198;2023-08-30T16:19:07;21.10;74.90
484;DHT22;228;48.922;12.198;2023-08-30T16:21:33;21.20;73.30
484;DHT22;228;48.922;12.198;2023-08-30T16:23:59;20.30;74.60
484;DHT22;228;48.922;12.198;2023-08-30T16:26:25;20.30;76.90
484;DHT22;228;48.922;12.198;2023-08-30T16:28:51;20.60;77.30
484;DHT22;228;48.922;12.198;2023-08-30T16:31:17;20.40;77.30
484;DHT22;228;48.922;12.198;2023-08-30T16:33:48;20.30;79.30
484;DHT22;228;48.922;12.198;2023-08-30T16:36:14;20.30;80.10
484;DHT22;228;48.922;12.198;2023-08-30T16:38:40;20.60;78.90
484;DHT22;228;48.922;12.198;2023-08-30T16:41:06;21.00;77.50
484;DHT22;228;48.922;12.198;2023-08-30T16:43:32;21.10;76.70
484;DHT22;228;48.922;12.198;2023-08-30T16:45:58;20.90;77.50
484;DHT22;228;48.922;12.198;2023-08-30T16:48:25;21.10;77.80
484;DHT22;228;48.922;12.198;2023-08-30T16:50:52;21.30;76.00
484;DHT22;228;48.922;12.198;2023-08-30T16:53:18;21.10;77.10
484;DHT22;228;48.922;12.198;2023-08-30T16:55:44;20.80;78.60
484;DHT22;228;48.922;12.198;2023-08-30T16:58:10;20.90;78.50
484;DHT22;228;48.922;12.198;2023-08-30T17:00:36;21.10;77.70
484;DHT22;228;48.922;12.198;2023-08-30T17:03:04;20.80;77.50
484;DHT22;228;48.922;12.198;2023-08-30T17:05:30;20.30;78.60
484;DHT22;228;48.922;12.198;2023-08-30T17:07:56;20.30;78.00
484;DHT22;228;48.922;12.198;2023-08-30T17:10:22;20.10;79.50
484;DHT22;228;48.922;12.198;2023-08-30T17:12:52;19.60;82.50
484;DHT22;228;48.922;12.198;2023-08-30T17:15:23;19.60;82.10
484;DHT22;228;48.922;12.198;2023-08-30T17:17:49;19.80;82.30
484;DHT22;228;48.922;12.198;2023-08-30T17:20:15;19.50;81.00
484;DHT22;228;48.922;12.198;2023-08-30T17:22:41;19.30;83.70
484;DHT22;228;48.922;12.198;2023-08-30T17:25:08;19.20;84.70
484;DHT22;228;48.922;12.198;2023-08-30T17:27:34;18.80;86.40
484;DHT22;228;48.922;12.198;2023-08-30T17:30:03;18.50;86.00
484;DHT22;228;48.922;12.198;2023-08-30T17:32:29;18.70;86.80
484;DHT22;228;48.922;12.198;2023-08-30T17:34:56;19.20;83.90
484;DHT22;228;48.922;12.198;2023-08-30T17:37:22;19.10;84.40
484;DHT22;228;48.922;12.198;2023-08-30T17:39:48;18.90;84.40
484;DHT22;228;48.922;12.198;2023-08-30T17:42:15;19.30;84.90
484;DHT22;228;48.922;12.198;2023-08-30T17:44:41;19.80;82.40
484;DHT22;228;48.922;12.198;2023-08-30T17:47:08;20.20;80.50
484;DHT22;228;48.922;12.198;2023-08-30T17:49:35;20.30;79.30
484;DHT22;228;48.922;12.198;2023-08-30T17:52:02;20.50;77.90
484;DHT22;228;48.922;12.198;2023-08-30T17:54:33;20.50;78.80
484;DHT22;228;48.922;12.198;2023-08-30T17:57:01;20.50;78.90
484;DHT22;228;48.922;12.198;2023-08-30T17:59:28;20.50;79.30
484;DHT22;228;48.922;12.198;2023-08-30T18:01:56;20.50;79.10
484;DHT22;228;48.922;12.198;2023-08-30T18:04:22;20.50;78.20
484;DHT22;228;48.922;12.198;2023-08-30T18:06:48;20.20;77.50
484;DHT22;228;48.922;12.198;2023-08-30T18:09:14;19.50;80.70
484;DHT22;228;48.922;12.198;2023-08-30T18:11:41;19.60;82.00
484;DHT22;228;48.922;12.198;2023-08-30T18:14:08;19.60;81.50
484;DHT22;228;48.922;12.198;2023-08-30T18:16:35;19.60;81.50
484;DHT22;228;48.922;12.198;2023-08-30T18:19:01;19.20;84.20
484;DHT22;228;48.922;12.198;2023-08-30T18:21:29;18.90;84.20
484;DHT22;228;48.922;12.198;2023-08-30T18:24:19;18.40;86.40
484;DHT22;228;48.922;12.198;2023-08-30T18:26:49;18.40;87.60
484;DHT22;228;48.922;12.198;2023-08-30T18:29:16;18.20;88.50
484;DHT22;228;48.922;12.198;2023-08-30T18:31:45;17.90;89.30
484;DHT22;228;48.922;12.198;2023-08-30T18:34:11;18.00;89.20
484;DHT22;228;48.922;12.198;2023-08-30T18:36:38;18.20;89.30
484;DHT22;228;48.922;12.198;2023-08-30T18:39:05;18.10;89.20
484;DHT22;228;48.922;12.198;2023-08-30T18:41:31;18.30;89.60
484;DHT22;228;48.922;12.198;2023-08-30T18:43:57;18.20;89.10
484;DHT22;228;48.922;12.198;2023-08-30T18:46:23;18.30;89.40
484;DHT22;228;48.922;12.198;2023-08-30T18:48:49;18.40;89.30
484;DHT22;228;48.922;12.198;2023-08-30T18:51:17;18.40;88.90
484;DHT22;228;48.922;12.198;2023-08-30T18:53:45;18.50;88.30
484;DHT22;228;48.922;12.198;2023-08-30T18:56:11;18.00;90.10
484;DHT22;228;48.922;12.198;2023-08-30T18:58:37;17.30;91.60
484;DHT22;228;48.922;12.198;2023-08-30T19:01:04;17.50;92.10
484;DHT22;228;48.922;12.198;2023-08-30T19:03:30;17.60;91.70
484;DHT22;228;48.922;12.198;2023-08-30T19:05:57;17.00;92.60
484;DHT22;228;48.922;12.198;2023-08-30T19:08:23;17.00;93.60
484;DHT22;228;48.922;12.198;2023-08-30T19:10:49;16.80;94.00
484;DHT22;228;48.922;12.198;2023-08-30T19:13:15;16.70;94.50
484;DHT22;228;48.922;12.198;2023-08-30T19:15:41;16.70;94.80
484;DHT22;228;48.922;12.198;2023-08-30T19:18:07;16.50;95.70
484;DHT22;228;48.922;12.198;2023-08-30T19:20:34;16.70;95.40
484;DHT22;228;48.922;12.198;2023-08-30T19:23:00;16.80;95.20
484;DHT22;228;48.922;12.198;2023-08-30T19:25:32;16.80;95.40
484;DHT22;228;48.922;12.198;2023-08-30T19:27:59;16.70;95.60
484;DHT22;228;48.922;12.198;2023-08-30T19:30:26;16.60;95.90
484;DHT22;228;48.922;12.198;2023-08-30T19:32:52;16.70;95.80
484;DHT22;228;48.922;12.198;2023-08-30T19:35:19;16.90;95.70
484;DHT22;228;48.922;12.198;2023-08-30T19:37:45;17.00;95.50
484;DHT22;228;48.922;12.198;2023-08-30T19:40:13;16.80;95.90
484;DHT22;228;48.922;12.198;2023-08-30T19:42:39;16.50;96.20
484;DHT22;228;48.922;12.198;2023-08-30T19:45:06;16.30;96.90
484;DHT22;228;48.922;12.198;2023-08-30T19:47:33;16.20;97.50
484;DHT22;228;48.922;12.198;2023-08-30T19:49:59;16.30;97.60
484;DHT22;228;48.922;12.198;2023-08-30T19:52:26;16.30;97.60
484;DHT22;228;48.922;12.198;2023-08-30T19:54:52;16.30;97.70
484;DHT22;228;48.922;12.198;2023-08-30T19:57:20;16.60;97.40
484;DHT22;228;48.922;12.198;2023-08-30T19:59:46;17.30;96.00
484;DHT22;228;48.922;12.198;2023-08-30T20:02:13;17.60;94.50
484;DHT22;228;48.922;12.198;2023-08-30T20:04:40;17.70;93.80
484;DHT22;228;48.922;12.198;2023-08-30T20:07:07;17.90;93.70
484;DHT22;228;48.922;12.198;2023-08-30T20:09:35;18.10;93.10
484;DHT22;228;48.922;12.198;2023-08-30T20:12:01;18.30;92.90
484;DHT22;228;48.922;12.198;2023-08-30T20:14:28;18.30;92.50
484;DHT22;228;48.922;12.198;2023-08-30T20:16:54;18.30;92.50
484;DHT22;228;48.922;12.198;2023-08-30T20:19:22;18.30;92.40